Amazigh S1 — T8A2074 — position and weather

sailwx.info

Track history (hours):
 
Tides and Currents Weather Stations Pressure Air Temp Water Temp Dewpoint Dewpoint Depression Visibility Wind Speed Wind Dir Waves Ship Positions

Amazigh S1

Last reported at 2017-Nov-25 01:29 UTC. Time now 2017-Nov-25 01:59 UTC.
Position N 45°13' E 012°16'.

Length 95 m.

Type: Cargo ship. MMSI: 511116000.

Date/timePositionNaut miles runAvg speedWind from/ knotsBaromVisibWave heightAir tempDewpointWater temp
2017-Nov-25 01:29N 45°13' E 012°16'0 0.0
2017-Nov-25 00:53N 45°13' E 012°16'0 0.0
2017-Nov-25 00:23N 45°13' E 012°16'0 0.0
2017-Nov-24 23:59N 45°13' E 012°16'0 0.0
2017-Nov-24 23:23N 45°13' E 012°16'0 0.0
2017-Nov-24 22:56N 45°13' E 012°16'0 0.0
2017-Nov-24 22:23N 45°13' E 012°16'0 0.0
2017-Nov-24 21:53N 45°13' E 012°16'0 0.0
2017-Nov-24 21:26N 45°13' E 012°16'0 0.0
2017-Nov-24 20:53N 45°13' E 012°16'0 0.0
2017-Nov-24 20:26N 45°13' E 012°16'0 0.0
2017-Nov-24 19:59N 45°13' E 012°16'0 0.0
2017-Nov-24 19:29N 45°13' E 012°16'0 0.0
2017-Nov-24 18:53N 45°13' E 012°16'0 0.0
2017-Nov-24 18:26N 45°13' E 012°16'0 0.0
2017-Nov-24 17:50N 45°13' E 012°16'0 0.0
2017-Nov-24 17:29N 45°13' E 012°16'0 0.0
2017-Nov-24 16:50N 45°13' E 012°16'0 0.0
2017-Nov-24 16:26N 45°13' E 012°16'0 0.0
2017-Nov-24 14:59N 45°13' E 012°16'0 0.0
2017-Nov-24 14:20N 45°13' E 012°16'0 0.0
2017-Nov-24 13:56N 45°13' E 012°16'0 0.0
2017-Nov-24 13:20N 45°13' E 012°16'0 0.0
2017-Nov-24 12:56N 45°13' E 012°16'0 0.0
2017-Nov-24 10:02N 45°13' E 012°16'0 0.1
2017-Nov-24 09:59N 45°13' E 012°16'2 4.0
2017-Nov-24 09:30N 45°14' E 012°18'4 7.0
2017-Nov-24 09:00N 45°14' E 012°23'0 0.8
2017-Nov-24 08:30N 45°14' E 012°23'0 0.0
2017-Nov-24 08:00N 45°14' E 012°23'0 0.0
2017-Nov-24 07:24N 45°14' E 012°23'0 0.0
2017-Nov-24 07:00N 45°14' E 012°23'0 0.0
2017-Nov-24 06:30N 45°14' E 012°23'0 0.0
2017-Nov-24 06:00N 45°14' E 012°23'0 0.0
2017-Nov-24 05:27N 45°14' E 012°23'0 0.0
2017-Nov-24 05:00N 45°14' E 012°23'0 0.0
2017-Nov-24 04:27N 45°14' E 012°23'0 0.0
2017-Nov-24 04:00N 45°14' E 012°23'0 0.0
2017-Nov-24 03:30N 45°14' E 012°23'0 0.0
2017-Nov-24 03:00N 45°14' E 012°23'0 0.0
2017-Nov-24 02:27N 45°14' E 012°23'0 0.0
2017-Nov-24 01:57N 45°14' E 012°23'0 0.0
2017-Nov-24 01:30N 45°14' E 012°23'0 0.0
2017-Nov-24 00:57N 45°14' E 012°23'0 0.0
2017-Nov-24 00:30N 45°14' E 012°23'0 0.0
2017-Nov-24 00:00N 45°14' E 012°23'0 0.0
2017-Nov-23 23:15N 45°14' E 012°23'0 0.0
2017-Nov-23 23:00N 45°14' E 012°23'0 0.0
2017-Nov-23 22:30N 45°14' E 012°23'0 0.0
2017-Nov-23 21:51N 45°14' E 012°23'0 0.0
2017-Nov-23 21:27N 45°14' E 012°23'0 0.0
2017-Nov-23 21:00N 45°14' E 012°23'0 0.1
2017-Nov-23 20:30N 45°14' E 012°23'1 2.1
2017-Nov-23 20:00N 45°14' E 012°24'5 9.3
2017-Nov-23 19:30N 45°16' E 012°30'510.5
2017-Nov-23 19:00N 45°20' E 012°36'510.5
2017-Nov-23 18:30N 45°23' E 012°42'510.3
2017-Nov-23 18:00N 45°25' E 012°48'510.3
2017-Nov-23 17:30N 45°28' E 012°54'510.3
2017-Nov-23 17:00N 45°31' E 013°00'510.6
2017-Nov-23 16:30N 45°34' E 013°07'510.5
2017-Nov-23 16:00N 45°37' E 013°13'4 8.6
2017-Nov-23 15:30N 45°41' E 013°15'5 9.0
2017-Nov-23 15:00N 45°45' E 013°14'3 3.7
2017-Nov-23 14:19N 45°48' E 013°14'0 0.0
2017-Nov-23 13:55N 45°48' E 013°14'0 0.0
2017-Nov-23 13:25N 45°48' E 013°14'0 0.0
2017-Nov-23 12:58N 45°48' E 013°14'0 0.0
2017-Nov-23 12:28N 45°48' E 013°14'0 0.0
2017-Nov-23 11:49N 45°48' E 013°14'0 0.0
2017-Nov-23 11:28N 45°48' E 013°14'0 0.0
2017-Nov-23 10:49N 45°48' E 013°14'0 0.0
2017-Nov-23 10:28N 45°48' E 013°14'0 0.0
2017-Nov-23 09:46N 45°48' E 013°14'0 0.0
2017-Nov-23 09:28N 45°48' E 013°14'0 0.0
2017-Nov-23 08:43N 45°48' E 013°14'0 0.0
2017-Nov-23 08:28N 45°48' E 013°14'0 0.0
2017-Nov-23 07:55N 45°48' E 013°14'0 0.0
2017-Nov-23 06:55N 45°48' E 013°14'0 0.0
2017-Nov-23 06:25N 45°48' E 013°14'0 0.0
2017-Nov-23 05:49N 45°48' E 013°14'0 0.0
2017-Nov-23 05:28N 45°48' E 013°14'0 0.0
2017-Nov-23 04:58N 45°48' E 013°14'0 0.0
2017-Nov-23 04:25N 45°48' E 013°14'0 0.0
2017-Nov-23 03:52N 45°48' E 013°14'0 0.0
2017-Nov-23 03:19N 45°48' E 013°14'0 0.0
2017-Nov-23 02:58N 45°48' E 013°14'0 0.0
2017-Nov-23 02:28N 45°48' E 013°14'0 0.0
2017-Nov-23 01:55N 45°48' E 013°14'0 0.0
2017-Nov-23 01:28N 45°48' E 013°14'0 0.0
2017-Nov-23 00:49N 45°48' E 013°14'0 0.0
2017-Nov-23 00:22N 45°48' E 013°14'0 0.0
2017-Nov-22 23:58N 45°48' E 013°14'0 0.0
2017-Nov-22 23:28N 45°48' E 013°14'0 0.0
2017-Nov-22 22:46N 45°48' E 013°14'0 0.0
2017-Nov-22 22:28N 45°48' E 013°14'0 0.0
2017-Nov-22 21:55N 45°48' E 013°14'0 0.0
2017-Nov-22 21:16N 45°48' E 013°14'0 0.0
2017-Nov-22 20:58N 45°48' E 013°14'0 0.0
2017-Nov-22 20:22N 45°48' E 013°14'0 0.0
2017-Nov-22 19:58N 45°48' E 013°14'0 0.0
2017-Nov-22 19:16N 45°48' E 013°14'  
Track history (hours):
 
Tides and Currents Weather Stations Pressure Air Temp Water Temp Dewpoint Dewpoint Depression Visibility Wind Speed Wind Dir Waves Ship Positions

Amazigh S1

Last reported at 2017-Nov-25 01:29 UTC. Time now 2017-Nov-25 01:59 UTC.
Position N 45°13' E 012°16'.

Length 95 m.

Type: Cargo ship. MMSI: 511116000.

Date/timePositionNaut miles runAvg speedWind from/ knotsBaromVisibWave heightAir tempDewpointWater temp
2017-Nov-25 01:29N 45°13' E 012°16'0 0.0
2017-Nov-25 00:53N 45°13' E 012°16'0 0.0
2017-Nov-25 00:23N 45°13' E 012°16'0 0.0
2017-Nov-24 23:59N 45°13' E 012°16'0 0.0
2017-Nov-24 23:23N 45°13' E 012°16'0 0.0
2017-Nov-24 22:56N 45°13' E 012°16'0 0.0
2017-Nov-24 22:23N 45°13' E 012°16'0 0.0
2017-Nov-24 21:53N 45°13' E 012°16'0 0.0
2017-Nov-24 21:26N 45°13' E 012°16'0 0.0
2017-Nov-24 20:53N 45°13' E 012°16'0 0.0
2017-Nov-24 20:26N 45°13' E 012°16'0 0.0
2017-Nov-24 19:59N 45°13' E 012°16'0 0.0
2017-Nov-24 19:29N 45°13' E 012°16'0 0.0
2017-Nov-24 18:53N 45°13' E 012°16'0 0.0
2017-Nov-24 18:26N 45°13' E 012°16'0 0.0
2017-Nov-24 17:50N 45°13' E 012°16'0 0.0
2017-Nov-24 17:29N 45°13' E 012°16'0 0.0
2017-Nov-24 16:50N 45°13' E 012°16'0 0.0
2017-Nov-24 16:26N 45°13' E 012°16'0 0.0
2017-Nov-24 14:59N 45°13' E 012°16'0 0.0
2017-Nov-24 14:20N 45°13' E 012°16'0 0.0
2017-Nov-24 13:56N 45°13' E 012°16'0 0.0
2017-Nov-24 13:20N 45°13' E 012°16'0 0.0
2017-Nov-24 12:56N 45°13' E 012°16'0 0.0
2017-Nov-24 10:02N 45°13' E 012°16'0 0.1
2017-Nov-24 09:59N 45°13' E 012°16'2 4.0
2017-Nov-24 09:30N 45°14' E 012°18'4 7.0
2017-Nov-24 09:00N 45°14' E 012°23'0 0.8
2017-Nov-24 08:30N 45°14' E 012°23'0 0.0
2017-Nov-24 08:00N 45°14' E 012°23'0 0.0
2017-Nov-24 07:24N 45°14' E 012°23'0 0.0
2017-Nov-24 07:00N 45°14' E 012°23'0 0.0
2017-Nov-24 06:30N 45°14' E 012°23'0 0.0
2017-Nov-24 06:00N 45°14' E 012°23'0 0.0
2017-Nov-24 05:27N 45°14' E 012°23'0 0.0
2017-Nov-24 05:00N 45°14' E 012°23'0 0.0
2017-Nov-24 04:27N 45°14' E 012°23'0 0.0
2017-Nov-24 04:00N 45°14' E 012°23'0 0.0
2017-Nov-24 03:30N 45°14' E 012°23'0 0.0
2017-Nov-24 03:00N 45°14' E 012°23'0 0.0
2017-Nov-24 02:27N 45°14' E 012°23'0 0.0
2017-Nov-24 01:57N 45°14' E 012°23'0 0.0
2017-Nov-24 01:30N 45°14' E 012°23'0 0.0
2017-Nov-24 00:57N 45°14' E 012°23'0 0.0
2017-Nov-24 00:30N 45°14' E 012°23'0 0.0
2017-Nov-24 00:00N 45°14' E 012°23'0 0.0
2017-Nov-23 23:15N 45°14' E 012°23'0 0.0
2017-Nov-23 23:00N 45°14' E 012°23'0 0.0
2017-Nov-23 22:30N 45°14' E 012°23'0 0.0
2017-Nov-23 21:51N 45°14' E 012°23'0 0.0
2017-Nov-23 21:27N 45°14' E 012°23'0 0.0
2017-Nov-23 21:00N 45°14' E 012°23'0 0.1
2017-Nov-23 20:30N 45°14' E 012°23'1 2.1
2017-Nov-23 20:00N 45°14' E 012°24'5 9.3
2017-Nov-23 19:30N 45°16' E 012°30'510.5
2017-Nov-23 19:00N 45°20' E 012°36'510.5
2017-Nov-23 18:30N 45°23' E 012°42'510.3
2017-Nov-23 18:00N 45°25' E 012°48'510.3
2017-Nov-23 17:30N 45°28' E 012°54'510.3
2017-Nov-23 17:00N 45°31' E 013°00'510.6
2017-Nov-23 16:30N 45°34' E 013°07'510.5
2017-Nov-23 16:00N 45°37' E 013°13'4 8.6
2017-Nov-23 15:30N 45°41' E 013°15'5 9.0
2017-Nov-23 15:00N 45°45' E 013°14'3 3.7
2017-Nov-23 14:19N 45°48' E 013°14'0 0.0
2017-Nov-23 13:55N 45°48' E 013°14'0 0.0
2017-Nov-23 13:25N 45°48' E 013°14'0 0.0
2017-Nov-23 12:58N 45°48' E 013°14'0 0.0
2017-Nov-23 12:28N 45°48' E 013°14'0 0.0
2017-Nov-23 11:49N 45°48' E 013°14'0 0.0
2017-Nov-23 11:28N 45°48' E 013°14'0 0.0
2017-Nov-23 10:49N 45°48' E 013°14'0 0.0
2017-Nov-23 10:28N 45°48' E 013°14'0 0.0
2017-Nov-23 09:46N 45°48' E 013°14'0 0.0
2017-Nov-23 09:28N 45°48' E 013°14'0 0.0
2017-Nov-23 08:43N 45°48' E 013°14'0 0.0
2017-Nov-23 08:28N 45°48' E 013°14'0 0.0
2017-Nov-23 07:55N 45°48' E 013°14'0 0.0
2017-Nov-23 06:55N 45°48' E 013°14'0 0.0
2017-Nov-23 06:25N 45°48' E 013°14'0 0.0
2017-Nov-23 05:49N 45°48' E 013°14'0 0.0
2017-Nov-23 05:28N 45°48' E 013°14'0 0.0
2017-Nov-23 04:58N 45°48' E 013°14'0 0.0
2017-Nov-23 04:25N 45°48' E 013°14'0 0.0
2017-Nov-23 03:52N 45°48' E 013°14'0 0.0
2017-Nov-23 03:19N 45°48' E 013°14'0 0.0
2017-Nov-23 02:58N 45°48' E 013°14'0 0.0
2017-Nov-23 02:28N 45°48' E 013°14'0 0.0
2017-Nov-23 01:55N 45°48' E 013°14'0 0.0
2017-Nov-23 01:28N 45°48' E 013°14'0 0.0
2017-Nov-23 00:49N 45°48' E 013°14'0 0.0
2017-Nov-23 00:22N 45°48' E 013°14'0 0.0
2017-Nov-22 23:58N 45°48' E 013°14'0 0.0
2017-Nov-22 23:28N 45°48' E 013°14'0 0.0
2017-Nov-22 22:46N 45°48' E 013°14'0 0.0
2017-Nov-22 22:28N 45°48' E 013°14'0 0.0
2017-Nov-22 21:55N 45°48' E 013°14'0 0.0
2017-Nov-22 21:16N 45°48' E 013°14'0 0.0
2017-Nov-22 20:58N 45°48' E 013°14'0 0.0
2017-Nov-22 20:22N 45°48' E 013°14'0 0.0
2017-Nov-22 19:58N 45°48' E 013°14'0 0.0
2017-Nov-22 19:16N 45°48' E 013°14'  

Dump ship's entire track history